Time;durP1;ratioP1;P1;durP2;ratioP2;P2;SDS_P1;SDS_P2;PMS_P1;PMS_P2;Temp;Humidity;BMP_temperature;BMP_pressure;BME280_temperature;BME280_humidity;BME280_pressure;Samples;Min_cycle;Max_cycle;Signal;HPM_P1;HPM_P2
2022/08/22 00:01:06;;;;;;;;;11.00;11.00;;;;;;;;5179381;28;8809;-78
2022/08/22 00:03:41;;;;;;;;;10.50;10.50;;;;;;;;5166766;28;9497;-78
2022/08/22 00:06:42;;;;;;;;;8.75;8.75;;;;;;;;5194849;28;8818;-78
2022/08/22 00:09:32;;;;;;;;;13.33;12.67;;;;;;;;5192313;28;8794;-77
2022/08/22 00:12:07;;;;;;;;;10.75;10.50;;;;;;;;5192623;28;8789;-79
2022/08/22 00:14:42;;;;;;;;;10.50;10.50;;;;;;;;5191904;28;8823;-78
2022/08/22 00:17:36;;;;;;;;;7.75;7.75;;;;;;;;5190604;28;8853;-78
2022/08/22 00:20:15;;;;;;;;;11.25;10.00;;;;;;;;5171576;28;8925;-78
2022/08/22 00:22:58;;;;;;;;;14.60;14.60;;;;;;;;5166554;28;9518;-78
2022/08/22 00:25:36;;;;;;;;;17.40;17.40;;;;;;;;5208288;28;8802;-78
2022/08/22 00:28:13;;;;;;;;;15.40;15.40;;;;;;;;5173655;28;8818;-78
2022/08/22 00:31:21;;;;;;;;;14.50;13.50;;;;;;;;5210921;28;8893;-77
2022/08/22 00:33:55;;;;;;;;;47.40;33.00;;;;;;;;5191851;28;8855;-76
2022/08/22 00:36:50;;;;;;;;;21.00;20.20;;;;;;;;5207883;28;8814;-76
2022/08/22 00:39:27;;;;;;;;;18.00;17.25;;;;;;;;5192261;28;8806;-76
2022/08/22 00:41:58;;;;;;;;;34.80;32.60;;;;;;;;5185012;28;8866;-75
2022/08/22 00:44:39;;;;;;;;;42.00;35.80;;;;;;;;5189795;28;8799;-76
2022/08/22 00:47:10;;;;;;;;;15.50;14.75;;;;;;;;5207869;28;8815;-76
2022/08/22 00:50:04;;;;;;;;;27.20;27.20;;;;;;;;5191815;28;8771;-76
2022/08/22 00:52:54;;;;;;;;;55.20;43.60;;;;;;;;5183697;28;8791;-75
2022/08/22 00:55:31;;;;;;;;;21.60;21.00;;;;;;;;5208074;28;8775;-75
2022/08/22 00:58:08;;;;;;;;;25.00;25.00;;;;;;;;5191536;28;8783;-74
2022/08/22 01:01:02;;;;;;;;;29.00;27.00;;;;;;;;5191216;28;8815;-74
2022/08/22 01:03:43;;;;;;;;;12.75;12.00;;;;;;;;5209238;28;8801;-74
2022/08/22 01:06:41;;;;;;;;;13.25;13.00;;;;;;;;5190349;28;9006;-74
2022/08/22 01:09:15;;;;;;;;;12.80;12.80;;;;;;;;5187416;28;8777;-74
2022/08/22 01:12:04;;;;;;;;;68.40;52.80;;;;;;;;5186873;28;8934;-74
2022/08/22 01:14:38;;;;;;;;;104.33;95.33;;;;;;;;5170863;28;8785;-74
2022/08/22 01:17:12;;;;;;;;;135.00;114.00;;;;;;;;5173444;28;11545;-74
2022/08/22 01:19:43;;;;;;;;;80.40;69.00;;;;;;;;5191140;28;9577;-74
2022/08/22 01:23:00;;;;;;;;;110.25;103.25;;;;;;;;5184801;28;8847;-74
2022/08/22 01:25:50;;;;;;;;;168.00;145.25;;;;;;;;5180540;28;8907;-74
2022/08/22 01:28:21;;;;;;;;;186.75;161.25;;;;;;;;5187179;28;11075;-74
2022/08/22 01:31:02;;;;;;;;;114.50;101.25;;;;;;;;5190058;28;11139;-74
2022/08/22 01:33:36;;;;;;;;;116.80;102.20;;;;;;;;5191347;28;8863;-74
2022/08/22 01:36:26;;;;;;;;;50.00;39.80;;;;;;;;5174622;28;8801;-74
2022/08/22 01:39:20;;;;;;;;;29.00;28.60;;;;;;;;5174596;28;8971;-75
2022/08/22 01:42:01;;;;;;;;;18.60;17.80;;;;;;;;5187356;28;8907;-75
2022/08/22 01:44:49;;;;;;;;;17.80;16.80;;;;;;;;5193788;28;8949;-74
2022/08/22 01:47:43;;;;;;;;;13.00;12.75;;;;;;;;5187467;28;8882;-79
2022/08/22 01:50:22;;;;;;;;;36.40;32.60;;;;;;;;5174707;28;8793;-78
2022/08/22 01:53:13;;;;;;;;;31.20;29.00;;;;;;;;5174570;28;8778;-77
2022/08/22 01:55:52;;;;;;;;;79.00;68.60;;;;;;;;5158210;28;8781;-78
2022/08/22 01:58:25;;;;;;;;;116.60;95.80;;;;;;;;5157994;28;8835;-77
2022/08/22 02:00:56;;;;;;;;;77.20;60.20;;;;;;;;5190493;28;9559;-77
2022/08/22 02:03:32;;;;;;;;;63.80;50.20;;;;;;;;5190537;28;8765;-77
2022/08/22 02:06:08;;;;;;;;;27.80;21.60;;;;;;;;5174087;28;8777;-76
2022/08/22 02:08:45;;;;;;;;;39.60;34.80;;;;;;;;5174198;28;8789;-76
2022/08/22 02:11:35;;;;;;;;;55.60;45.00;;;;;;;;5174428;28;8861;-76
2022/08/22 02:14:12;;;;;;;;;59.60;48.80;;;;;;;;5190504;28;8773;-76
2022/08/22 02:16:46;;;;;;;;;13.80;13.80;;;;;;;;5209755;28;8841;-76
2022/08/22 02:19:38;;;;;;;;;21.00;19.60;;;;;;;;5188322;28;8805;-76
2022/08/22 02:22:12;;;;;;;;;17.50;17.25;;;;;;;;5209364;28;9536;-77
2022/08/22 02:24:46;;;;;;;;;11.50;10.25;;;;;;;;5178663;28;8815;-77
2022/08/22 02:27:33;;;;;;;;;11.75;10.75;;;;;;;;5190962;28;8816;-77
2022/08/22 02:30:13;;;;;;;;;37.40;32.40;;;;;;;;5173929;28;8795;-77
2022/08/22 02:33:05;;;;;;;;;67.60;51.80;;;;;;;;5190114;28;8789;-78
2022/08/22 02:35:39;;;;;;;;;49.60;42.80;;;;;;;;5191519;28;8876;-78
2022/08/22 02:38:31;;;;;;;;;23.25;20.00;;;;;;;;5189037;28;8797;-74
2022/08/22 02:41:17;;;;;;;;;15.00;14.50;;;;;;;;5177269;28;8817;-75
2022/08/22 02:43:54;;;;;;;;;10.50;9.50;;;;;;;;5173424;28;8935;-75
2022/08/22 02:46:31;;;;;;;;;10.00;9.50;;;;;;;;5173409;28;8817;-74
2022/08/22 02:49:19;;;;;;;;;8.50;8.50;;;;;;;;5173676;28;8781;-75
2022/08/22 02:52:01;;;;;;;;;10.25;9.25;;;;;;;;5189672;28;8793;-75
2022/08/22 02:54:42;;;;;;;;;12.50;12.50;;;;;;;;5190086;28;9702;-75
2022/08/22 02:57:19;;;;;;;;;11.00;10.25;;;;;;;;5208787;28;8854;-75
2022/08/22 03:00:03;;;;;;;;;12.50;11.75;;;;;;;;5189544;28;8813;-75
2022/08/22 03:02:37;;;;;;;;;11.00;11.00;;;;;;;;5189918;28;8837;-75
2022/08/22 03:05:14;;;;;;;;;11.25;10.50;;;;;;;;5206878;28;8802;-75
2022/08/22 03:08:00;;;;;;;;;14.25;13.25;;;;;;;;5189678;28;8816;-76
2022/08/22 03:10:35;;;;;;;;;7.00;6.50;;;;;;;;5174108;28;8834;-74
2022/08/22 03:13:11;;;;;;;;;9.50;9.00;;;;;;;;5189046;28;8880;-74
2022/08/22 03:15:45;;;;;;;;;10.00;9.75;;;;;;;;5216436;28;9004;-75
2022/08/22 03:18:20;;;;;;;;;10.50;10.25;;;;;;;;5210110;28;9522;-75
2022/08/22 03:20:57;;;;;;;;;8.50;7.00;;;;;;;;5211968;28;8822;-77
2022/08/22 03:23:39;;;;;;;;;9.00;9.00;;;;;;;;5210827;28;8803;-76
2022/08/22 03:26:43;;;;;;;;;11.00;10.00;;;;;;;;5193879;28;8810;-76
2022/08/22 03:29:24;;;;;;;;;11.50;10.00;;;;;;;;5155305;28;8822;-76
2022/08/22 03:32:05;;;;;;;;;20.00;19.25;;;;;;;;5191027;28;8783;-78
2022/08/22 03:34:37;;;;;;;;;20.50;19.75;;;;;;;;5168085;28;9544;-78
2022/08/22 03:37:42;;;;;;;;;19.75;18.25;;;;;;;;5189793;28;8928;-77
2022/08/22 03:40:41;;;;;;;;;20.50;19.75;;;;;;;;5172189;28;8789;-76
2022/08/22 03:43:45;;;;;;;;;42.00;36.00;;;;;;;;5208504;28;9516;-74
2022/08/22 03:46:19;;;;;;;;;30.40;29.00;;;;;;;;5209062;28;8921;-80
2022/08/22 03:49:03;;;;;;;;;45.80;38.60;;;;;;;;5208894;28;8913;-74
2022/08/22 03:51:34;;;;;;;;;68.00;54.60;;;;;;;;5177310;28;8824;-74
2022/08/22 03:54:05;;;;;;;;;55.00;46.00;;;;;;;;5199729;28;8803;-74
2022/08/22 03:56:54;;;;;;;;;51.60;42.20;;;;;;;;5195126;28;8794;-74
2022/08/22 03:59:47;;;;;;;;;37.40;33.60;;;;;;;;5194983;28;8812;-75
2022/08/22 04:02:30;;;;;;;;;32.60;25.80;;;;;;;;5192186;28;8813;-75
2022/08/22 04:05:04;;;;;;;;;15.75;14.75;;;;;;;;5208637;28;8817;-75
2022/08/22 04:07:38;;;;;;;;;8.25;8.25;;;;;;;;5206760;28;8826;-75
2022/08/22 04:10:27;;;;;;;;;14.50;12.50;;;;;;;;5191721;28;8953;-76
2022/08/22 04:13:35;;;;;;;;;15.25;14.75;;;;;;;;5193507;28;8803;-76
2022/08/22 04:16:28;;;;;;;;;39.80;35.20;;;;;;;;5208716;28;8833;-76
2022/08/22 04:19:06;;;;;;;;;28.50;27.25;;;;;;;;5172257;28;9550;-75
2022/08/22 04:21:37;;;;;;;;;60.80;49.00;;;;;;;;5191100;28;8811;-75
2022/08/22 04:24:19;;;;;;;;;43.00;36.20;;;;;;;;5207921;28;8864;-74
2022/08/22 04:26:59;;;;;;;;;37.20;33.00;;;;;;;;5191015;28;8815;-75
2022/08/22 04:29:35;;;;;;;;;21.00;18.75;;;;;;;;5225918;28;8813;-75
2022/08/22 04:32:16;;;;;;;;;23.50;19.50;;;;;;;;5187317;28;8788;-75
2022/08/22 04:34:51;;;;;;;;;14.75;13.50;;;;;;;;5172347;28;8789;-74
2022/08/22 04:37:27;;;;;;;;;11.50;11.00;;;;;;;;5155298;28;8791;-74
2022/08/22 04:40:02;;;;;;;;;17.50;14.50;;;;;;;;5205184;28;9504;-75
2022/08/22 04:42:39;;;;;;;;;167.00;144.25;;;;;;;;5172335;28;8789;-75
2022/08/22 04:45:32;;;;;;;;;24.60;24.60;;;;;;;;5206857;28;9545;-75
2022/08/22 04:48:11;;;;;;;;;12.00;12.00;;;;;;;;5175136;28;8814;-76
2022/08/22 04:50:52;;;;;;;;;17.00;15.25;;;;;;;;5190196;28;8940;-76
2022/08/22 04:53:37;;;;;;;;;14.25;14.25;;;;;;;;5183187;28;8969;-75
2022/08/22 04:56:27;;;;;;;;;14.50;14.00;;;;;;;;5186335;28;8819;-79
2022/08/22 04:59:11;;;;;;;;;12.25;12.25;;;;;;;;5191184;28;8795;-77
2022/08/22 05:01:45;;;;;;;;;14.00;13.00;;;;;;;;5175379;28;8774;-77
2022/08/22 05:04:28;;;;;;;;;15.50;15.00;;;;;;;;5210265;28;8798;-77
2022/08/22 05:07:09;;;;;;;;;16.50;16.00;;;;;;;;5198056;28;8835;-77
2022/08/22 05:09:43;;;;;;;;;18.75;18.25;;;;;;;;5215028;28;8793;-77
2022/08/22 05:12:20;;;;;;;;;19.00;19.00;;;;;;;;5181757;28;8898;-77
2022/08/22 05:14:56;;;;;;;;;21.75;20.75;;;;;;;;5214573;28;8778;-77
2022/08/22 05:17:28;;;;;;;;;20.75;20.75;;;;;;;;5198210;28;8807;-77
2022/08/22 05:20:05;;;;;;;;;21.50;20.00;;;;;;;;5197640;28;8816;-77
2022/08/22 05:22:40;;;;;;;;;13.25;12.75;;;;;;;;5198193;28;8860;-76
2022/08/22 05:25:13;;;;;;;;;21.75;20.25;;;;;;;;5214586;28;8807;-77
2022/08/22 05:27:47;;;;;;;;;19.00;17.25;;;;;;;;5231923;28;8904;-76
2022/08/22 05:30:27;;;;;;;;;20.50;19.50;;;;;;;;5214180;28;8798;-76
2022/08/22 05:33:18;;;;;;;;;20.00;19.25;;;;;;;;5182065;28;8903;-76
2022/08/22 05:35:51;;;;;;;;;22.25;22.25;;;;;;;;5181773;28;8798;-76
2022/08/22 05:38:26;;;;;;;;;24.50;23.25;;;;;;;;5181484;28;8775;-77
2022/08/22 05:41:00;;;;;;;;;21.25;20.00;;;;;;;;5181420;28;9545;-77
2022/08/22 05:43:36;;;;;;;;;23.75;22.25;;;;;;;;5181680;28;8802;-77
2022/08/22 05:46:14;;;;;;;;;21.75;19.25;;;;;;;;5214363;28;8809;-76
2022/08/22 05:48:57;;;;;;;;;23.25;22.75;;;;;;;;5201289;28;8941;-76
2022/08/22 05:51:34;;;;;;;;;27.00;26.00;;;;;;;;5206073;28;8805;-77
2022/08/22 05:54:18;;;;;;;;;21.50;20.75;;;;;;;;5184677;28;8818;-77
2022/08/22 05:56:52;;;;;;;;;20.00;19.75;;;;;;;;5214016;28;8957;-77
2022/08/22 05:59:26;;;;;;;;;19.25;18.75;;;;;;;;5197389;28;8802;-76
2022/08/22 06:01:57;;;;;;;;;21.50;21.50;;;;;;;;5213928;28;8794;-77
2022/08/22 06:04:48;;;;;;;;;14.00;14.00;;;;;;;;5197817;28;9538;-76
2022/08/22 06:07:24;;;;;;;;;15.25;15.25;;;;;;;;5181322;28;8843;-76
2022/08/22 06:10:15;;;;;;;;;11.75;11.75;;;;;;;;5181671;28;8787;-78
2022/08/22 06:13:06;;;;;;;;;13.75;13.75;;;;;;;;5197324;28;8805;-75
2022/08/22 06:15:40;;;;;;;;;13.25;13.25;;;;;;;;5212981;28;8776;-77
2022/08/22 06:18:13;;;;;;;;;12.00;12.00;;;;;;;;5210770;28;8794;-77
2022/08/22 06:20:48;;;;;;;;;14.50;14.25;;;;;;;;5210430;28;8925;-78
2022/08/22 06:23:32;;;;;;;;;16.00;16.00;;;;;;;;5228348;28;8790;-77
2022/08/22 06:26:04;;;;;;;;;12.75;12.75;;;;;;;;5210191;28;8810;-77
2022/08/22 06:28:44;;;;;;;;;15.50;15.50;;;;;;;;5210488;28;8775;-78
2022/08/22 06:31:24;;;;;;;;;17.50;17.50;;;;;;;;5177718;28;8789;-78
2022/08/22 06:34:30;;;;;;;;;18.75;16.25;;;;;;;;5196573;28;8779;-77
2022/08/22 06:37:05;;;;;;;;;15.75;15.75;;;;;;;;5193885;28;8803;-78
2022/08/22 06:39:41;;;;;;;;;16.25;16.25;;;;;;;;5193791;28;8779;-78
2022/08/22 06:42:15;;;;;;;;;12.50;12.50;;;;;;;;5210447;28;8933;-78
2022/08/22 06:45:04;;;;;;;;;12.00;12.00;;;;;;;;5193841;28;8767;-78
2022/08/22 06:47:41;;;;;;;;;13.00;13.00;;;;;;;;5228333;28;8799;-78
2022/08/22 06:50:31;;;;;;;;;11.75;11.75;;;;;;;;5177894;28;8783;-77
2022/08/22 06:53:04;;;;;;;;;15.25;15.25;;;;;;;;5210218;28;8791;-76
2022/08/22 06:55:38;;;;;;;;;11.75;11.00;;;;;;;;5192990;28;8783;-76
2022/08/22 06:58:38;;;;;;;;;14.00;14.00;;;;;;;;5196094;28;8867;-77
2022/08/22 07:01:17;;;;;;;;;13.25;13.25;;;;;;;;5210111;28;8791;-77
2022/08/22 07:03:53;;;;;;;;;15.25;15.25;;;;;;;;5178631;28;8787;-76
2022/08/22 07:06:46;;;;;;;;;14.25;14.25;;;;;;;;5196038;28;8888;-76
2022/08/22 07:09:37;;;;;;;;;13.75;13.75;;;;;;;;5209750;28;8791;-75
2022/08/22 07:12:18;;;;;;;;;15.25;15.25;;;;;;;;5193037;28;8795;-76
2022/08/22 07:14:51;;;;;;;;;12.00;12.00;;;;;;;;5177434;28;8787;-77
2022/08/22 07:17:24;;;;;;;;;13.00;13.00;;;;;;;;5193088;28;8786;-77
2022/08/22 07:20:04;;;;;;;;;14.75;14.75;;;;;;;;5193312;28;8774;-77
2022/08/22 07:22:36;;;;;;;;;13.75;13.75;;;;;;;;5209628;28;8821;-77
2022/08/22 07:25:13;;;;;;;;;9.75;9.75;;;;;;;;5192857;28;8814;-77
2022/08/22 07:28:02;;;;;;;;;9.50;9.50;;;;;;;;5194786;28;8817;-77
2022/08/22 07:30:38;;;;;;;;;11.75;11.75;;;;;;;;5209256;28;8775;-76
2022/08/22 07:33:18;;;;;;;;;17.75;17.75;;;;;;;;5208991;28;8826;-77
2022/08/22 07:35:57;;;;;;;;;34.75;31.75;;;;;;;;5210027;28;8805;-77
2022/08/22 07:38:53;;;;;;;;;13.75;13.75;;;;;;;;5196694;28;8825;-77
2022/08/22 07:41:53;;;;;;;;;14.75;14.75;;;;;;;;5209501;28;9522;-78
2022/08/22 07:44:31;;;;;;;;;12.50;12.50;;;;;;;;5209945;28;8925;-77
2022/08/22 07:47:23;;;;;;;;;12.75;12.75;;;;;;;;5226661;28;8837;-77
2022/08/22 07:50:06;;;;;;;;;44.00;38.00;;;;;;;;5175847;28;8787;-77
2022/08/22 07:52:42;;;;;;;;;23.75;23.50;;;;;;;;5209552;28;8787;-77
2022/08/22 07:55:17;;;;;;;;;17.25;17.25;;;;;;;;5193037;28;8767;-77
2022/08/22 07:57:53;;;;;;;;;18.00;18.00;;;;;;;;5192976;28;8860;-77
2022/08/22 08:00:27;;;;;;;;;12.75;12.75;;;;;;;;5192512;28;8786;-77
2022/08/22 08:03:04;;;;;;;;;17.00;17.00;;;;;;;;5192431;28;8787;-77
2022/08/22 08:05:37;;;;;;;;;15.25;15.25;;;;;;;;5192764;28;8795;-78
2022/08/22 08:08:13;;;;;;;;;17.75;17.75;;;;;;;;5208757;28;9552;-76
2022/08/22 08:10:45;;;;;;;;;16.00;16.00;;;;;;;;5191616;28;9538;-77
2022/08/22 08:13:24;;;;;;;;;15.75;15.75;;;;;;;;5208129;28;8806;-77
2022/08/22 08:15:55;;;;;;;;;11.00;11.00;;;;;;;;5226381;28;8905;-77
2022/08/22 08:18:31;;;;;;;;;20.00;20.00;;;;;;;;5208426;28;8787;-77
2022/08/22 08:21:03;;;;;;;;;18.00;18.00;;;;;;;;5208498;28;8801;-77
2022/08/22 08:23:36;;;;;;;;;19.25;19.25;;;;;;;;5208430;28;8795;-77
2022/08/22 08:26:30;;;;;;;;;15.00;15.00;;;;;;;;5194479;28;8908;-77
2022/08/22 08:29:03;;;;;;;;;19.25;19.25;;;;;;;;5192244;28;8791;-77
2022/08/22 08:31:53;;;;;;;;;15.50;15.50;;;;;;;;5226417;28;8898;-76
2022/08/22 08:34:25;;;;;;;;;14.00;14.00;;;;;;;;5192219;28;8783;-76
2022/08/22 08:37:15;;;;;;;;;20.50;20.50;;;;;;;;5175739;28;8783;-76
2022/08/22 08:39:50;;;;;;;;;16.00;15.25;;;;;;;;5190817;28;8829;-76
2022/08/22 08:42:24;;;;;;;;;16.00;16.00;;;;;;;;5191635;28;8809;-76
2022/08/22 08:45:10;;;;;;;;;19.00;19.00;;;;;;;;5208400;28;8775;-76
2022/08/22 08:47:48;;;;;;;;;19.50;19.50;;;;;;;;5192044;28;8834;-77
2022/08/22 08:50:35;;;;;;;;;18.25;18.25;;;;;;;;5208073;28;8768;-77
2022/08/22 08:53:24;;;;;;;;;26.25;26.25;;;;;;;;5174997;28;8795;-77
2022/08/22 08:56:19;;;;;;;;;14.25;14.25;;;;;;;;5225647;28;8876;-77
2022/08/22 08:58:58;;;;;;;;;18.50;18.50;;;;;;;;5207993;28;8791;-77
2022/08/22 09:01:44;;;;;;;;;13.75;13.00;;;;;;;;5174935;28;8771;-77
2022/08/22 09:04:21;;;;;;;;;18.75;17.25;;;;;;;;5175570;28;8805;-76
2022/08/22 09:06:52;;;;;;;;;17.25;17.25;;;;;;;;5207419;28;8811;-76
2022/08/22 09:09:56;;;;;;;;;20.50;20.50;;;;;;;;5225954;28;8767;-76
2022/08/22 09:12:59;;;;;;;;;17.00;17.00;;;;;;;;5210350;28;8791;-76
2022/08/22 09:15:41;;;;;;;;;17.00;17.00;;;;;;;;5192080;28;8775;-76
2022/08/22 09:18:16;;;;;;;;;13.75;13.75;;;;;;;;5195397;28;8779;-77
2022/08/22 09:21:21;;;;;;;;;13.75;13.75;;;;;;;;5213637;28;8825;-76
2022/08/22 09:24:26;;;;;;;;;16.75;16.75;;;;;;;;5225916;28;8821;-77
2022/08/22 09:27:02;;;;;;;;;15.00;15.00;;;;;;;;5191286;28;8831;-77
2022/08/22 09:29:45;;;;;;;;;11.00;10.75;;;;;;;;5191322;28;8850;-77
2022/08/22 09:32:16;;;;;;;;;12.75;12.75;;;;;;;;5207814;28;8775;-77
2022/08/22 09:34:56;;;;;;;;;16.75;16.75;;;;;;;;5225453;28;8779;-76
2022/08/22 09:37:38;;;;;;;;;11.25;11.25;;;;;;;;5207613;28;8791;-76
2022/08/22 09:40:24;;;;;;;;;15.25;15.25;;;;;;;;5224997;28;8878;-75
2022/08/22 09:43:17;;;;;;;;;14.25;14.25;;;;;;;;5225357;28;8779;-76
2022/08/22 09:46:00;;;;;;;;;9.00;9.00;;;;;;;;5207432;28;8806;-76
2022/08/22 09:48:37;;;;;;;;;15.00;14.75;;;;;;;;5207102;28;9672;-76
2022/08/22 09:51:14;;;;;;;;;14.25;13.50;;;;;;;;5193193;28;8791;-76
2022/08/22 09:54:03;;;;;;;;;13.25;13.25;;;;;;;;5211374;28;9497;-76
2022/08/22 09:56:57;;;;;;;;;14.50;14.50;;;;;;;;5194714;28;8809;-76
2022/08/22 09:59:28;;;;;;;;;15.00;15.00;;;;;;;;5211585;28;8799;-76
2022/08/22 10:02:18;;;;;;;;;8.25;8.25;;;;;;;;5178576;28;9498;-76
2022/08/22 10:04:55;;;;;;;;;13.50;13.50;;;;;;;;5211031;28;8883;-76
2022/08/22 10:07:57;;;;;;;;;12.00;12.00;;;;;;;;5197338;28;8837;-77
2022/08/22 10:10:50;;;;;;;;;14.50;13.75;;;;;;;;5196934;28;8805;-77
2022/08/22 10:13:39;;;;;;;;;10.25;10.25;;;;;;;;5178521;28;9576;-78
2022/08/22 10:16:16;;;;;;;;;11.25;11.25;;;;;;;;5211855;28;8915;-78
2022/08/22 10:18:50;;;;;;;;;14.00;14.00;;;;;;;;5178443;28;8787;-77
2022/08/22 10:21:47;;;;;;;;;16.00;16.00;;;;;;;;5213775;28;8787;-77
2022/08/22 10:24:38;;;;;;;;;16.75;16.75;;;;;;;;5196741;28;8786;-78
2022/08/22 10:27:19;;;;;;;;;15.00;15.00;;;;;;;;5211974;28;9561;-74
2022/08/22 10:29:50;;;;;;;;;11.50;11.50;;;;;;;;5194634;28;8803;-75
2022/08/22 10:32:55;;;;;;;;;15.00;15.00;;;;;;;;5211344;28;8909;-74
2022/08/22 10:35:50;;;;;;;;;11.75;11.75;;;;;;;;5213355;28;8802;-75
2022/08/22 10:38:24;;;;;;;;;11.75;11.75;;;;;;;;5193821;28;8786;-74
2022/08/22 10:41:11;;;;;;;;;13.00;13.00;;;;;;;;5210198;28;8829;-74
2022/08/22 10:43:47;;;;;;;;;12.25;12.25;;;;;;;;5210240;28;8778;-74
2022/08/22 10:46:25;;;;;;;;;11.25;11.25;;;;;;;;5211422;28;8771;-74
2022/08/22 10:48:58;;;;;;;;;13.75;13.75;;;;;;;;5193609;28;8779;-74
2022/08/22 10:51:39;;;;;;;;;11.75;11.75;;;;;;;;5177410;28;8860;-75
2022/08/22 10:54:23;;;;;;;;;8.50;8.50;;;;;;;;5177265;28;8783;-75
2022/08/22 10:57:01;;;;;;;;;13.00;13.00;;;;;;;;5193572;28;8913;-75
2022/08/22 10:59:38;;;;;;;;;14.25;14.25;;;;;;;;5193254;28;8799;-76
2022/08/22 11:02:19;;;;;;;;;11.75;11.75;;;;;;;;5189974;28;8826;-76
2022/08/22 11:04:56;;;;;;;;;11.50;11.50;;;;;;;;5187734;28;8803;-77
2022/08/22 11:08:05;;;;;;;;;12.00;12.00;;;;;;;;5226937;28;8824;-73
2022/08/22 11:10:52;;;;;;;;;12.00;12.00;;;;;;;;5193584;28;8764;-74
2022/08/22 11:13:26;;;;;;;;;14.00;14.00;;;;;;;;5193323;28;8772;-76
2022/08/22 11:16:00;;;;;;;;;13.25;13.25;;;;;;;;5177597;28;8782;-76
2022/08/22 11:18:34;;;;;;;;;12.25;12.25;;;;;;;;5173763;28;8793;-74
2022/08/22 11:21:21;;;;;;;;;8.25;8.25;;;;;;;;5161379;28;8821;-74
2022/08/22 11:24:05;;;;;;;;;12.00;12.00;;;;;;;;5207681;28;8799;-76
2022/08/22 11:26:36;;;;;;;;;9.50;9.50;;;;;;;;5155994;28;8813;-76
2022/08/22 11:29:25;;;;;;;;;10.00;10.00;;;;;;;;5188317;28;8799;-74
2022/08/22 11:32:02;;;;;;;;;9.25;9.25;;;;;;;;5206671;28;12171;-74
2022/08/22 11:34:42;;;;;;;;;12.00;12.00;;;;;;;;5219130;28;8804;-74
2022/08/22 11:37:31;;;;;;;;;10.00;10.00;;;;;;;;5191625;28;8821;-74
2022/08/22 11:40:22;;;;;;;;;10.00;10.00;;;;;;;;5186954;28;8916;-76
2022/08/22 11:43:12;;;;;;;;;9.00;9.00;;;;;;;;5194667;28;8789;-77
2022/08/22 11:45:50;;;;;;;;;9.50;9.50;;;;;;;;5196686;28;8783;-76
2022/08/22 11:48:37;;;;;;;;;10.00;10.00;;;;;;;;5189295;28;8835;-74
2022/08/22 11:51:11;;;;;;;;;10.50;10.50;;;;;;;;5207029;28;8972;-75
2022/08/22 11:53:46;;;;;;;;;7.25;7.25;;;;;;;;5207828;28;8795;-77
2022/08/22 11:56:36;;;;;;;;;8.50;8.50;;;;;;;;5175803;28;8783;-77
2022/08/22 11:59:22;;;;;;;;;8.25;8.25;;;;;;;;5208516;28;8866;-75
2022/08/22 12:01:58;;;;;;;;;6.00;6.00;;;;;;;;5207696;28;9657;-75
2022/08/22 12:04:56;;;;;;;;;7.00;7.00;;;;;;;;5213143;28;8777;-74
2022/08/22 12:07:29;;;;;;;;;7.00;7.00;;;;;;;;5188151;28;8935;-75
2022/08/22 12:10:20;;;;;;;;;6.00;6.00;;;;;;;;5188057;28;8776;-73
2022/08/22 12:12:57;;;;;;;;;7.75;7.75;;;;;;;;5171703;28;8793;-74
2022/08/22 12:15:33;;;;;;;;;23.40;23.40;;;;;;;;5187991;28;8781;-74
2022/08/22 12:18:40;;;;;;;;;9.75;9.75;;;;;;;;5205522;28;8802;-73
2022/08/22 12:21:11;;;;;;;;;7.00;7.00;;;;;;;;5205936;28;8801;-76
2022/08/22 12:23:48;;;;;;;;;7.00;7.00;;;;;;;;5171350;28;8773;-77
2022/08/22 12:26:47;;;;;;;;;7.00;7.00;;;;;;;;5173822;28;8809;-76
2022/08/22 12:29:30;;;;;;;;;8.00;8.00;;;;;;;;5171632;28;8824;-78
2022/08/22 12:32:14;;;;;;;;;15.00;15.00;;;;;;;;5156089;28;9488;-77
2022/08/22 12:35:00;;;;;;;;;11.50;11.50;;;;;;;;5171182;28;8804;-76
2022/08/22 12:37:42;;;;;;;;;13.25;13.25;;;;;;;;5170999;28;8899;-75
2022/08/22 12:40:21;;;;;;;;;7.00;7.00;;;;;;;;5187426;28;8809;-77
2022/08/22 12:42:59;;;;;;;;;8.00;8.00;;;;;;;;5187595;28;8816;-75
2022/08/22 12:45:42;;;;;;;;;7.50;7.50;;;;;;;;5225584;28;8806;-76
2022/08/22 12:48:39;;;;;;;;;97.50;97.25;;;;;;;;5191462;28;8820;-75
2022/08/22 12:51:28;;;;;;;;;22.75;22.75;;;;;;;;5207819;28;8815;-76
2022/08/22 12:54:18;;;;;;;;;5.75;5.75;;;;;;;;5174656;28;8801;-75
2022/08/22 12:56:49;;;;;;;;;9.00;9.00;;;;;;;;5191813;28;8818;-75
2022/08/22 12:59:30;;;;;;;;;6.75;6.75;;;;;;;;5191062;28;8829;-75
2022/08/22 13:02:12;;;;;;;;;8.00;8.00;;;;;;;;5175134;28;8823;-75
2022/08/22 13:04:47;;;;;;;;;9.50;9.50;;;;;;;;5191277;28;8806;-74
2022/08/22 13:07:33;;;;;;;;;8.25;8.25;;;;;;;;5208045;28;8830;-75
2022/08/22 13:10:13;;;;;;;;;8.00;8.00;;;;;;;;5172671;28;8805;-75
2022/08/22 13:12:45;;;;;;;;;7.50;7.50;;;;;;;;5187003;28;8789;-75
2022/08/22 13:15:19;;;;;;;;;7.50;7.50;;;;;;;;5178626;28;9035;-75
2022/08/22 13:17:51;;;;;;;;;6.00;6.00;;;;;;;;5201363;28;8819;-74
2022/08/22 13:20:29;;;;;;;;;5.75;5.75;;;;;;;;5207324;28;8819;-74
2022/08/22 13:23:04;;;;;;;;;6.75;6.75;;;;;;;;5191961;28;8817;-74
2022/08/22 13:25:58;;;;;;;;;9.00;9.00;;;;;;;;5184324;28;8823;-74
2022/08/22 13:28:30;;;;;;;;;9.75;9.75;;;;;;;;5171140;28;9616;-74
2022/08/22 13:31:23;;;;;;;;;9.25;9.25;;;;;;;;5192093;28;8801;-74
2022/08/22 13:33:59;;;;;;;;;16.00;16.00;;;;;;;;5174618;28;8818;-75
2022/08/22 13:36:32;;;;;;;;;7.00;7.00;;;;;;;;5175102;28;8862;-75
2022/08/22 13:39:13;;;;;;;;;11.25;11.25;;;;;;;;5190789;28;8938;-75
2022/08/22 13:41:52;;;;;;;;;10.00;10.00;;;;;;;;5199044;28;8814;-75
2022/08/22 13:44:47;;;;;;;;;5.75;5.75;;;;;;;;5187112;28;8829;-76
2022/08/22 13:47:46;;;;;;;;;8.75;8.00;;;;;;;;5198472;28;8901;-74
2022/08/22 13:50:20;;;;;;;;;8.25;8.25;;;;;;;;5189885;28;8812;-77
2022/08/22 13:52:58;;;;;;;;;4.75;4.75;;;;;;;;5207038;28;8843;-76
2022/08/22 13:55:49;;;;;;;;;10.00;10.00;;;;;;;;5208467;28;8803;-77
2022/08/22 13:58:27;;;;;;;;;8.75;8.75;;;;;;;;5189952;28;8800;-76
2022/08/22 14:01:02;;;;;;;;;7.50;7.50;;;;;;;;5190689;28;9529;-74
2022/08/22 14:03:48;;;;;;;;;7.00;7.00;;;;;;;;5207322;28;9645;-74
2022/08/22 14:06:32;;;;;;;;;7.50;7.50;;;;;;;;5208232;28;9530;-74
2022/08/22 14:09:16;;;;;;;;;8.75;8.75;;;;;;;;5206422;28;8796;-76
2022/08/22 14:11:50;;;;;;;;;8.50;8.50;;;;;;;;5189185;28;8788;-75
2022/08/22 14:14:23;;;;;;;;;9.00;9.00;;;;;;;;5206671;28;8777;-77
2022/08/22 14:16:57;;;;;;;;;7.00;7.00;;;;;;;;5191309;28;8785;-76
2022/08/22 14:19:34;;;;;;;;;9.00;9.00;;;;;;;;5171904;28;8807;-75
2022/08/22 14:22:20;;;;;;;;;7.50;7.50;;;;;;;;5186387;28;8799;-75
2022/08/22 14:24:57;;;;;;;;;7.25;7.25;;;;;;;;5189887;28;8820;-75
2022/08/22 14:27:57;;;;;;;;;6.50;6.50;;;;;;;;5159905;28;8809;-78
2022/08/22 14:30:31;;;;;;;;;7.75;7.75;;;;;;;;5190888;28;8857;-76
2022/08/22 14:33:21;;;;;;;;;8.75;8.75;;;;;;;;5156023;28;8833;-75
2022/08/22 14:35:54;;;;;;;;;7.25;7.25;;;;;;;;5179162;28;8877;-78
2022/08/22 14:38:31;;;;;;;;;8.75;8.75;;;;;;;;5202488;28;8864;-77
2022/08/22 14:41:24;;;;;;;;;8.00;8.00;;;;;;;;5185052;28;8871;-75
2022/08/22 14:44:21;;;;;;;;;6.75;6.75;;;;;;;;5176183;28;8817;-75
2022/08/22 14:46:55;;;;;;;;;9.00;9.00;;;;;;;;5170273;28;8861;-75
2022/08/22 14:49:45;;;;;;;;;9.75;9.75;;;;;;;;5180303;28;8813;-76
2022/08/22 14:52:29;;;;;;;;;13.00;13.00;;;;;;;;5174240;28;8831;-73
2022/08/22 14:55:19;;;;;;;;;11.25;11.25;;;;;;;;5199979;28;8787;-74
2022/08/22 14:57:54;;;;;;;;;7.00;7.00;;;;;;;;5204366;28;8833;-74
2022/08/22 15:00:28;;;;;;;;;11.50;11.50;;;;;;;;5195936;28;8927;-74
2022/08/22 15:03:13;;;;;;;;;13.00;13.00;;;;;;;;5172674;28;8810;-74
2022/08/22 15:06:11;;;;;;;;;11.75;11.50;;;;;;;;5193798;28;8845;-74
2022/08/22 15:08:42;;;;;;;;;9.75;9.75;;;;;;;;5189905;28;8908;-74
2022/08/22 15:11:13;;;;;;;;;14.00;14.00;;;;;;;;5166020;28;8797;-78
2022/08/22 15:14:00;;;;;;;;;11.75;11.75;;;;;;;;5175471;28;8847;-75
2022/08/22 15:16:37;;;;;;;;;11.75;11.75;;;;;;;;5177542;28;8835;-75
2022/08/22 15:19:37;;;;;;;;;9.25;9.25;;;;;;;;5189454;28;8814;-75
2022/08/22 15:22:08;;;;;;;;;8.00;8.00;;;;;;;;5169639;28;8783;-75
2022/08/22 15:25:14;;;;;;;;;5.75;5.75;;;;;;;;5215691;28;8834;-75
2022/08/22 15:27:52;;;;;;;;;10.00;10.00;;;;;;;;5189402;28;8956;-76
2022/08/22 15:30:50;;;;;;;;;17.00;17.00;;;;;;;;5205492;28;8779;-75
2022/08/22 15:33:24;;;;;;;;;12.25;12.25;;;;;;;;5185919;28;8833;-76
2022/08/22 15:36:08;;;;;;;;;56.20;47.00;;;;;;;;5207065;28;8813;-75
2022/08/22 15:38:47;;;;;;;;;13.75;13.75;;;;;;;;5206188;28;8798;-74
2022/08/22 15:41:24;;;;;;;;;9.25;9.25;;;;;;;;5189233;28;8822;-75
2022/08/22 15:44:05;;;;;;;;;10.00;10.00;;;;;;;;5186997;28;8797;-74
2022/08/22 15:46:43;;;;;;;;;9.25;9.25;;;;;;;;5186376;28;8850;-74
2022/08/22 15:49:20;;;;;;;;;11.75;11.75;;;;;;;;5169601;28;8769;-74
2022/08/22 15:52:00;;;;;;;;;13.75;13.75;;;;;;;;5170399;28;8781;-74
2022/08/22 15:54:51;;;;;;;;;22.50;22.50;;;;;;;;5172155;28;8916;-75
2022/08/22 15:57:48;;;;;;;;;15.00;15.00;;;;;;;;5220787;28;8809;-74
2022/08/22 16:00:23;;;;;;;;;14.00;14.00;;;;;;;;5190605;28;8783;-74
2022/08/22 16:03:06;;;;;;;;;14.50;14.50;;;;;;;;5193909;28;8955;-74